This is the latest recevied weather packets stored in our database for station/object ZL3GL-4. If no packets are shown the sender has not sent any weather packets the latest 10 day(s).
| Time | Temp. | Humidity | Pressure | Rain* | Wind** | Luminosity | Snow |
|---|---|---|---|---|---|---|---|
| 1777763719 | 13.33° C | 67% | 1032.1 hPa | 0 mm | 0.45 m/s, 167° | - | - |
| 1777762875 | 13.33° C | 68% | 1032.2 hPa | 0 mm | 1.34 m/s, 169° | - | - |
| 1777762036 | 12.78° C | 74% | 1032.2 hPa | 0 mm | 0 m/s | - | - |
| 1777761189 | 12.22° C | 75% | 1032.1 hPa | 0 mm | 0.45 m/s, 198° | - | - |
| 1777760344 | 12.22° C | 76% | 1032.1 hPa | 0 mm | 0.89 m/s, 197° | - | - |
| 1777759500 | 11.67° C | 78% | 1032.1 hPa | 0 mm | 0 m/s | - | - |
| 1777758659 | 11.11° C | 83% | 1032.3 hPa | 0 mm | 0 m/s | - | - |
| 1777757819 | 10.56° C | 88% | 1032.2 hPa | 0 mm | 0.45 m/s, 135° | - | - |
| 1777756969 | 9.44° C | 94% | 1032.2 hPa | 0 mm | 0 m/s | - | - |
| 1777756124 | 8.89° C | 97% | 1032.1 hPa | 0 mm | 0 m/s | - | - |
| 1777755281 | 8.33° C | 98% | 1032.1 hPa | 0 mm | 0.45 m/s, 295° | - | - |
| 1777754437 | 7.22° C | 99% | 1032.1 hPa | 0 mm | 0 m/s | - | - |
| 1777753593 | 6.67° C | 99% | 1031.9 hPa | 0 mm | 0.45 m/s, 335° | - | - |
| 1777752749 | 6.11° C | 99% | 1031.8 hPa | 0 mm | 0.45 m/s, 347° | - | - |
| 1777751905 | 5.56° C | 99% | 1031.8 hPa | 0 mm | 0 m/s | - | - |
| 1777751061 | 5.56° C | 99% | 1031.7 hPa | 0 mm | 0 m/s | - | - |
| 1777750217 | 5.56° C | 98% | 1031.6 hPa | 0 mm | 0.89 m/s, 336° | - | - |
| 1777749373 | 5.56° C | 98% | 1031.6 hPa | 0 mm | 0 m/s | - | - |
| 1777747686 | 6.11° C | 97% | 1031.7 hPa | 0 mm | 0.89 m/s, 281° | - | - |
| 1777746844 | 6.11° C | 97% | 1031.8 hPa | 0 mm | 0 m/s | - | - |
| 1777745998 | 6.11° C | 97% | 1031.7 hPa | 0 mm | 0 m/s | - | - |
| 1777745152 | 6.11° C | 97% | 1031.7 hPa | 0 mm | 0 m/s | - | - |
| 1777744309 | 6.67° C | 97% | 1031.8 hPa | 0 mm | 0 m/s | - | - |
| 1777743470 | 6.67° C | 97% | 1031.9 hPa | 0 mm | 0 m/s | - | - |
| 1777742622 | 6.67° C | 97% | 1032 hPa | 0 mm | 0 m/s | - | - |
* Rain latest hour (hover to see other rain measurements)
** Current wind speed in m/s (hover to see current wind gust speed)